createdAt,value
2018-05-10T00:00:06.036Z,998.50
2018-05-10T00:01:59.036Z,998.47
2018-05-10T00:02:59.102Z,998.48
2018-05-10T00:04:52.105Z,998.49
2018-05-10T00:05:52.163Z,998.46
2018-05-10T00:07:45.164Z,998.49
2018-05-10T00:08:45.231Z,998.49
2018-05-10T00:10:38.231Z,998.46
2018-05-10T00:11:38.291Z,998.45
2018-05-10T00:13:31.294Z,998.42
2018-05-10T00:14:31.353Z,998.40
2018-05-10T00:16:24.362Z,998.38
2018-05-10T00:17:24.424Z,998.36
2018-05-10T00:19:17.428Z,998.32
2018-05-10T00:20:17.485Z,998.29
2018-05-10T00:22:10.484Z,998.28
2018-05-10T00:23:10.546Z,998.28
2018-05-10T00:25:03.547Z,998.25
2018-05-10T00:26:03.609Z,998.24
2018-05-10T00:27:56.607Z,998.21
2018-05-10T00:28:56.678Z,998.26
2018-05-10T00:30:49.671Z,998.25
2018-05-10T00:31:49.732Z,998.24
2018-05-10T00:33:42.735Z,998.33
2018-05-10T00:34:42.795Z,998.33
2018-05-10T00:36:35.801Z,998.36
2018-05-10T00:37:35.854Z,998.34
2018-05-10T00:39:28.865Z,998.32
2018-05-10T00:40:28.926Z,998.32
2018-05-10T00:42:21.923Z,998.27
2018-05-10T00:43:21.991Z,998.31
2018-05-10T00:45:14.990Z,998.34
2018-05-10T00:46:15.053Z,998.32
2018-05-10T00:48:08.109Z,998.28
2018-05-10T00:49:08.109Z,998.28
2018-05-10T00:51:01.112Z,998.28
2018-05-10T00:52:01.172Z,998.24
2018-05-10T00:53:54.191Z,998.29
2018-05-10T00:54:54.236Z,998.30
2018-05-10T00:56:47.229Z,998.26
2018-05-10T00:57:47.298Z,998.29
2018-05-10T00:59:40.302Z,998.23
2018-05-10T01:00:40.360Z,998.29
2018-05-10T01:02:33.351Z,998.29
2018-05-10T01:03:33.416Z,998.29
2018-05-10T01:05:26.425Z,998.27
2018-05-10T01:06:26.484Z,998.30
2018-05-10T01:08:19.479Z,998.25
2018-05-10T01:09:19.543Z,998.26
2018-05-10T01:11:12.549Z,998.32
2018-05-10T01:12:12.604Z,998.34
2018-05-10T01:14:05.612Z,998.35
2018-05-10T01:15:05.665Z,998.36
2018-05-10T01:16:58.657Z,998.35
2018-05-10T01:17:58.722Z,998.36
2018-05-10T01:19:51.723Z,998.33
2018-05-10T01:20:51.782Z,998.31
2018-05-10T01:22:44.776Z,998.29
2018-05-10T01:23:44.841Z,998.32
2018-05-10T01:25:37.842Z,998.33
2018-05-10T01:26:37.898Z,998.28
2018-05-10T01:28:30.893Z,998.35
2018-05-10T01:29:30.956Z,998.31
2018-05-10T01:31:23.966Z,998.35
2018-05-10T01:32:24.023Z,998.40
2018-05-10T01:34:17.027Z,998.44
2018-05-10T01:35:17.085Z,998.41
2018-05-10T01:37:10.088Z,998.38
2018-05-10T01:38:10.143Z,998.38
2018-05-10T01:40:03.145Z,998.38
2018-05-10T01:41:03.207Z,998.38
2018-05-10T01:42:56.199Z,998.39
2018-05-10T01:43:56.262Z,998.39
2018-05-10T01:45:49.265Z,998.37
2018-05-10T01:46:49.323Z,998.35
2018-05-10T01:48:42.322Z,998.38
2018-05-10T01:49:42.385Z,998.38
2018-05-10T01:51:35.384Z,998.39
2018-05-10T01:52:35.441Z,998.40
2018-05-10T01:54:28.446Z,998.40
2018-05-10T01:55:28.505Z,998.42
2018-05-10T01:57:21.504Z,998.44
2018-05-10T01:58:21.562Z,998.43
2018-05-10T02:00:14.570Z,998.48
2018-05-10T02:01:14.621Z,998.48
2018-05-10T02:03:07.619Z,998.48
2018-05-10T02:04:07.682Z,998.50
2018-05-10T02:06:00.690Z,998.50
2018-05-10T02:07:00.746Z,998.52
2018-05-10T02:08:53.736Z,998.51
2018-05-10T02:09:53.801Z,998.46
2018-05-10T02:11:46.801Z,998.48
2018-05-10T02:12:46.857Z,998.45
2018-05-10T02:14:39.914Z,998.48
2018-05-10T02:15:39.916Z,998.51
2018-05-10T02:17:32.918Z,998.50
2018-05-10T02:18:32.971Z,998.50
2018-05-10T02:20:25.978Z,998.55
2018-05-10T02:21:26.036Z,998.53
2018-05-10T02:23:19.029Z,998.50
2018-05-10T02:24:19.093Z,998.47
2018-05-10T02:26:12.095Z,998.51
2018-05-10T02:27:12.150Z,998.53
2018-05-10T02:29:05.151Z,998.55
2018-05-10T02:30:05.211Z,998.60
2018-05-10T02:31:58.213Z,998.64
2018-05-10T02:32:58.268Z,998.64
2018-05-10T02:34:51.282Z,998.71
2018-05-10T02:35:51.328Z,998.68
2018-05-10T02:37:44.325Z,998.74
2018-05-10T02:38:44.390Z,998.72
2018-05-10T02:40:37.388Z,998.79
2018-05-10T02:41:37.443Z,998.81
2018-05-10T02:43:30.436Z,998.90
2018-05-10T02:44:30.500Z,998.92
2018-05-10T02:46:23.504Z,998.99
2018-05-10T02:47:23.567Z,999.04
2018-05-10T02:49:16.556Z,999.09
2018-05-10T02:50:16.621Z,999.07
2018-05-10T02:52:09.626Z,999.05
2018-05-10T02:53:09.680Z,999.05
2018-05-10T02:55:02.689Z,999.02
2018-05-10T02:56:02.739Z,999.08
2018-05-10T02:57:55.739Z,999.07
2018-05-10T02:58:55.801Z,999.07
2018-05-10T03:00:48.800Z,999.08
2018-05-10T03:01:48.859Z,999.09
2018-05-10T03:03:41.857Z,999.15
2018-05-10T03:04:41.921Z,999.13
2018-05-10T03:06:34.916Z,999.16
2018-05-10T03:07:34.975Z,999.18
2018-05-10T03:09:27.964Z,999.21
2018-05-10T03:10:28.030Z,999.21
2018-05-10T03:12:21.034Z,999.30
2018-05-10T03:13:21.096Z,999.38
2018-05-10T03:15:14.100Z,999.37
2018-05-10T03:16:14.144Z,999.43
2018-05-10T03:18:07.137Z,999.38
2018-05-10T03:19:07.202Z,999.44
2018-05-10T03:21:01.712Z,999.42
2018-05-10T03:22:01.772Z,999.46
2018-05-10T03:23:54.762Z,999.43
2018-05-10T03:24:54.822Z,999.49
2018-05-10T03:26:47.829Z,999.53
2018-05-10T03:27:47.884Z,999.50
2018-05-10T03:29:40.878Z,999.50
2018-05-10T03:30:40.942Z,999.54
2018-05-10T03:32:33.943Z,999.52
2018-05-10T03:33:34.000Z,999.55
2018-05-10T03:35:27.083Z,999.60
2018-05-10T03:36:27.124Z,999.61
2018-05-10T03:38:20.049Z,999.58
2018-05-10T03:39:20.110Z,999.56
2018-05-10T03:41:13.115Z,999.59
2018-05-10T03:42:13.174Z,999.61
2018-05-10T03:44:06.167Z,999.56
2018-05-10T03:45:06.230Z,999.62
2018-05-10T03:46:59.239Z,999.64
2018-05-10T03:47:59.287Z,999.61
2018-05-10T03:49:52.284Z,999.63
2018-05-10T03:50:52.345Z,999.67
2018-05-10T03:52:45.351Z,999.57
2018-05-10T03:53:45.402Z,999.62
2018-05-10T03:55:38.417Z,999.69
2018-05-10T03:56:38.461Z,999.68
2018-05-10T03:58:31.459Z,999.70
2018-05-10T03:59:31.534Z,999.73
2018-05-10T04:01:24.523Z,999.71
2018-05-10T04:02:24.577Z,999.76
2018-05-10T04:04:17.574Z,999.77
2018-05-10T04:05:17.636Z,999.78
2018-05-10T04:07:10.633Z,999.76
2018-05-10T04:08:10.689Z,999.76
2018-05-10T04:10:03.687Z,999.82
2018-05-10T04:11:03.746Z,999.75
2018-05-10T04:12:56.749Z,999.80
2018-05-10T04:13:56.803Z,999.82
2018-05-10T04:15:49.825Z,999.88
2018-05-10T04:16:49.871Z,999.88
2018-05-10T04:18:42.858Z,999.90
2018-05-10T04:19:42.923Z,999.89
2018-05-10T04:21:36.435Z,999.98
2018-05-10T04:22:36.488Z,999.99
2018-05-10T04:24:29.485Z,1000.00
2018-05-10T04:25:29.543Z,999.98
2018-05-10T04:27:22.550Z,1000.00
2018-05-10T04:28:22.601Z,999.99
2018-05-10T04:30:15.599Z,1000.06
2018-05-10T04:31:15.659Z,1000.03
2018-05-10T04:33:08.666Z,1000.04
2018-05-10T04:34:08.723Z,1000.01
2018-05-10T04:36:01.734Z,1000.00
2018-05-10T04:37:01.778Z,1000.07
2018-05-10T04:38:54.769Z,1000.06
2018-05-10T04:39:54.832Z,1000.13
2018-05-10T04:41:47.840Z,1000.15
2018-05-10T04:42:47.892Z,1000.16
2018-05-10T04:44:40.882Z,1000.16
2018-05-10T04:45:40.948Z,1000.21
2018-05-10T04:47:33.952Z,1000.21
2018-05-10T04:48:34.006Z,1000.18
2018-05-10T04:50:26.998Z,1000.22
2018-05-10T04:51:27.061Z,1000.25
2018-05-10T04:53:20.063Z,1000.28
2018-05-10T04:54:20.120Z,1000.31
2018-05-10T04:56:13.140Z,1000.35
2018-05-10T04:57:13.179Z,1000.35
2018-05-10T04:59:06.171Z,1000.43
2018-05-10T05:00:06.234Z,1000.45
2018-05-10T05:01:59.238Z,1000.43
2018-05-10T05:02:59.291Z,1000.49
2018-05-10T05:04:52.289Z,1000.52
2018-05-10T05:05:52.353Z,1000.48
2018-05-10T05:07:45.345Z,1000.50
2018-05-10T05:08:45.412Z,1000.50
2018-05-10T05:10:38.399Z,1000.50
2018-05-10T05:11:38.464Z,1000.54
2018-05-10T05:13:31.465Z,1000.46
2018-05-10T05:14:31.519Z,1000.42
2018-05-10T05:16:24.532Z,1000.38
2018-05-10T05:17:24.579Z,1000.47
2018-05-10T05:19:17.574Z,1000.48
2018-05-10T05:20:17.634Z,1000.45
2018-05-10T05:22:10.635Z,1000.45
2018-05-10T05:23:10.691Z,1000.55
2018-05-10T05:25:03.696Z,1000.51
2018-05-10T05:26:03.753Z,1000.54
2018-05-10T05:27:56.753Z,1000.51
2018-05-10T05:28:56.810Z,1000.49
2018-05-10T05:30:49.803Z,1000.49
2018-05-10T05:31:49.871Z,1000.52
2018-05-10T05:33:42.868Z,1000.55
2018-05-10T05:34:42.923Z,1000.64
2018-05-10T05:36:35.956Z,1000.70
2018-05-10T05:37:35.976Z,1000.74
2018-05-10T05:39:28.973Z,1000.75
2018-05-10T05:40:29.039Z,1000.82
2018-05-10T05:42:22.040Z,1000.88
2018-05-10T05:43:22.194Z,1000.88
2018-05-10T05:45:15.086Z,1000.89
2018-05-10T05:46:15.150Z,1000.95
2018-05-10T05:48:08.154Z,1000.96
2018-05-10T05:49:08.207Z,1000.99
2018-05-10T05:51:01.207Z,1001.00
2018-05-10T05:52:01.258Z,1001.02
2018-05-10T05:53:54.266Z,1001.01
2018-05-10T05:54:54.342Z,1001.05
2018-05-10T05:56:47.331Z,1001.06
2018-05-10T05:57:47.374Z,1001.05
2018-05-10T05:59:40.365Z,1001.03
2018-05-10T06:00:40.428Z,1001.04
2018-05-10T06:02:33.442Z,1001.05
2018-05-10T06:03:33.494Z,1001.07
2018-05-10T06:05:26.485Z,1001.10
2018-05-10T06:06:26.549Z,1001.12
2018-05-10T06:08:19.553Z,1001.08
2018-05-10T06:09:19.608Z,1001.09
2018-05-10T06:11:12.605Z,1001.14
2018-05-10T06:12:12.665Z,1001.28
2018-05-10T06:14:05.671Z,1001.31
2018-05-10T06:15:05.733Z,1001.35
2018-05-10T06:16:58.737Z,1001.37
2018-05-10T06:17:58.790Z,1001.37
2018-05-10T06:19:51.785Z,1001.46
2018-05-10T06:20:51.857Z,1001.52
2018-05-10T06:22:44.865Z,1001.55
2018-05-10T06:23:44.922Z,1001.60
2018-05-10T06:25:37.920Z,1001.55
2018-05-10T06:26:37.987Z,1001.60
2018-05-10T06:28:31.003Z,1001.64
2018-05-10T06:29:31.052Z,1001.58
2018-05-10T06:31:24.063Z,1001.63
2018-05-10T06:32:24.126Z,1001.72
2018-05-10T06:34:17.137Z,1001.77
2018-05-10T06:35:17.194Z,1001.71
2018-05-10T06:37:10.205Z,1001.63
2018-05-10T06:38:10.264Z,1001.68
2018-05-10T06:40:03.282Z,1001.74
2018-05-10T06:41:03.337Z,1001.69
2018-05-10T06:42:56.349Z,1001.70
2018-05-10T06:43:56.410Z,1001.77
2018-05-10T06:45:49.411Z,1001.82
2018-05-10T06:46:49.537Z,1001.85
2018-05-10T06:48:42.999Z,1001.94
2018-05-10T06:49:43.057Z,1001.91
2018-05-10T06:51:36.058Z,1001.93
2018-05-10T06:52:36.127Z,1001.94
2018-05-10T06:54:29.132Z,1001.94
2018-05-10T06:55:29.189Z,1001.92
2018-05-10T06:57:22.212Z,1002.03
2018-05-10T06:58:22.262Z,1001.94
2018-05-10T07:00:15.280Z,1002.22
2018-05-10T07:01:15.345Z,1002.27
2018-05-10T07:03:08.361Z,1002.13
2018-05-10T07:04:08.423Z,1002.04
2018-05-10T07:06:01.417Z,1002.06
2018-05-10T07:07:01.480Z,1002.04
2018-05-10T07:08:54.490Z,1002.06
2018-05-10T07:09:54.765Z,1002.05
2018-05-10T07:11:47.560Z,1002.12
2018-05-10T07:12:47.700Z,1002.07
2018-05-10T07:14:40.632Z,1002.14
2018-05-10T07:15:40.691Z,1002.09
2018-05-10T07:17:33.709Z,1002.16
2018-05-10T07:18:33.757Z,1002.16
2018-05-10T07:20:26.755Z,1002.12
2018-05-10T07:21:26.819Z,1002.09
2018-05-10T07:23:19.830Z,1002.08
2018-05-10T07:24:19.887Z,1002.08
2018-05-10T07:26:12.889Z,1002.06
2018-05-10T07:27:12.956Z,1002.10
2018-05-10T07:29:05.989Z,1002.11
2018-05-10T07:30:06.020Z,1002.08
2018-05-10T07:31:59.016Z,1002.08
2018-05-10T07:32:59.144Z,1002.11
2018-05-10T07:34:52.091Z,1002.09
2018-05-10T07:35:52.147Z,1002.11
2018-05-10T07:37:45.165Z,1002.15
2018-05-10T07:38:45.209Z,1002.15
2018-05-10T07:40:38.212Z,1002.19
2018-05-10T07:41:38.279Z,1002.21
2018-05-10T07:43:31.289Z,1002.25
2018-05-10T07:44:31.347Z,1002.28
2018-05-10T07:46:24.353Z,1002.32
2018-05-10T07:47:24.435Z,1002.29
2018-05-10T07:49:17.939Z,1002.33
2018-05-10T07:50:17.990Z,1002.37
2018-05-10T07:52:11.046Z,1002.36
2018-05-10T07:53:11.110Z,1002.38
2018-05-10T07:55:04.060Z,1002.34
2018-05-10T07:56:04.119Z,1002.38
2018-05-10T07:57:57.148Z,1002.38
2018-05-10T07:58:57.188Z,1002.40
2018-05-10T08:00:50.174Z,1002.40
2018-05-10T08:01:50.240Z,1002.49
2018-05-10T08:03:43.246Z,1002.50
2018-05-10T08:04:43.299Z,1002.53
2018-05-10T08:06:36.301Z,1002.57
2018-05-10T08:07:36.381Z,1002.66
2018-05-10T08:09:29.405Z,1002.88
2018-05-10T08:10:29.429Z,1002.85
2018-05-10T08:12:22.429Z,1002.83
2018-05-10T08:13:22.489Z,1002.80
2018-05-10T08:15:15.508Z,1002.81
2018-05-10T08:16:15.565Z,1002.88
2018-05-10T08:18:08.583Z,1002.97
2018-05-10T08:19:08.655Z,1002.91
2018-05-10T08:21:01.641Z,1002.97
2018-05-10T08:22:01.711Z,1002.99
2018-05-10T08:23:54.839Z,1002.94
2018-05-10T08:24:54.783Z,1002.92
2018-05-10T08:26:47.788Z,1003.01
2018-05-10T08:27:47.863Z,1002.96
2018-05-10T08:29:40.874Z,1003.01
2018-05-10T08:30:40.930Z,1003.08
2018-05-10T08:32:33.937Z,1003.13
2018-05-10T08:33:34.005Z,1003.36
2018-05-10T08:35:27.024Z,1003.13
2018-05-10T08:36:27.168Z,1003.05
2018-05-10T08:38:20.128Z,1003.25
2018-05-10T08:39:20.178Z,1003.20
2018-05-10T08:41:13.181Z,1002.96
2018-05-10T08:42:13.254Z,1002.93
2018-05-10T08:44:06.269Z,1002.96
2018-05-10T08:45:06.378Z,1003.05
2018-05-10T08:46:59.338Z,1002.97
2018-05-10T08:47:59.411Z,1003.01
2018-05-10T08:49:52.475Z,1002.93
2018-05-10T08:50:52.508Z,1002.94
2018-05-10T08:52:45.510Z,1003.01
2018-05-10T08:53:45.596Z,1002.95
2018-05-10T08:55:38.613Z,1002.99
2018-05-10T08:56:38.672Z,1003.05
2018-05-10T08:58:31.730Z,1002.99
2018-05-10T08:59:31.739Z,1002.96
2018-05-10T09:01:24.754Z,1002.91
2018-05-10T09:02:24.814Z,1002.93
2018-05-10T09:04:17.828Z,1002.88
2018-05-10T09:05:17.888Z,1002.92
2018-05-10T09:07:10.895Z,1002.94
2018-05-10T09:08:10.959Z,1002.89
2018-05-10T09:10:03.982Z,1002.92
2018-05-10T09:11:04.041Z,1002.96
2018-05-10T09:12:57.048Z,1002.96
2018-05-10T09:13:57.114Z,1002.96
2018-05-10T09:15:50.133Z,1003.00
2018-05-10T09:16:50.183Z,1003.06
2018-05-10T09:18:43.720Z,1003.10
2018-05-10T09:19:43.761Z,1003.12
2018-05-10T09:21:36.766Z,1003.15
2018-05-10T09:22:36.836Z,1003.18
2018-05-10T09:24:29.845Z,1003.22
2018-05-10T09:25:29.905Z,1003.22
2018-05-10T09:27:22.902Z,1003.24
2018-05-10T09:28:22.972Z,1003.24
2018-05-10T09:30:15.991Z,1003.25
2018-05-10T09:31:16.040Z,1003.27
2018-05-10T09:33:09.048Z,1003.36
2018-05-10T09:34:09.115Z,1003.38
2018-05-10T09:36:02.153Z,1003.45
2018-05-10T09:37:02.190Z,1003.41
2018-05-10T09:38:55.209Z,1003.48
2018-05-10T09:39:55.258Z,1003.47
2018-05-10T09:41:48.266Z,1003.47
2018-05-10T09:42:48.336Z,1003.51
2018-05-10T09:44:41.341Z,1003.53
2018-05-10T09:45:41.405Z,1003.54
2018-05-10T09:47:34.416Z,1003.57
2018-05-10T09:48:34.477Z,1003.59
2018-05-10T09:50:27.486Z,1003.59
2018-05-10T09:51:27.558Z,1003.60
2018-05-10T09:53:20.549Z,1003.65
2018-05-10T09:54:20.613Z,1003.66
2018-05-10T09:56:13.631Z,1003.64
2018-05-10T09:57:13.682Z,1003.71
2018-05-10T09:59:06.703Z,1003.73
2018-05-10T10:00:06.746Z,1003.72
2018-05-10T10:01:59.748Z,1003.73
2018-05-10T10:02:59.819Z,1003.70
2018-05-10T10:04:52.828Z,1003.79
2018-05-10T10:05:52.900Z,1003.77
2018-05-10T10:07:45.896Z,1003.81
2018-05-10T10:08:45.956Z,1003.89
2018-05-10T10:10:38.980Z,1003.95
2018-05-10T10:11:39.114Z,1003.98
2018-05-10T10:13:32.039Z,1004.04
2018-05-10T10:14:32.099Z,1004.00
2018-05-10T10:16:25.105Z,1004.02
2018-05-10T10:17:25.163Z,1004.03
2018-05-10T10:19:18.699Z,1004.10
2018-05-10T10:20:18.730Z,1004.11
2018-05-10T10:22:11.734Z,1004.16
2018-05-10T10:23:11.798Z,1004.17
2018-05-10T10:25:04.804Z,1004.24
2018-05-10T10:26:04.860Z,1004.23
2018-05-10T10:27:57.857Z,1004.24
2018-05-10T10:28:57.924Z,1004.28
2018-05-10T10:30:50.940Z,1004.33
2018-05-10T10:31:50.994Z,1004.30
2018-05-10T10:33:43.995Z,1004.37
2018-05-10T10:34:44.059Z,1004.38
2018-05-10T10:36:37.072Z,1004.37
2018-05-10T10:37:37.130Z,1004.42
2018-05-10T10:39:30.169Z,1004.49
2018-05-10T10:40:30.203Z,1004.48
2018-05-10T10:42:23.200Z,1004.48
2018-05-10T10:43:23.264Z,1004.49
2018-05-10T10:45:17.318Z,1004.59
2018-05-10T10:46:17.177Z,1004.59
2018-05-10T10:48:10.175Z,1004.65
2018-05-10T10:49:10.238Z,1004.68
2018-05-10T10:51:03.243Z,1004.69
2018-05-10T10:52:03.301Z,1004.73
2018-05-10T10:53:56.381Z,1004.74
2018-05-10T10:54:56.363Z,1004.79
2018-05-10T10:56:49.401Z,1004.84
2018-05-10T10:57:49.431Z,1004.83
2018-05-10T10:59:42.443Z,1004.90
2018-05-10T11:00:42.490Z,1004.97
2018-05-10T11:02:35.487Z,1005.02
2018-05-10T11:03:35.551Z,1005.06
2018-05-10T11:05:28.636Z,1005.07
2018-05-10T11:06:28.617Z,1005.10
2018-05-10T11:08:21.612Z,1005.15
2018-05-10T11:09:21.678Z,1005.19
2018-05-10T11:11:14.681Z,1005.17
2018-05-10T11:12:14.736Z,1005.16
2018-05-10T11:14:07.752Z,1005.17
2018-05-10T11:15:07.870Z,1005.18
2018-05-10T11:17:00.840Z,1005.19
2018-05-10T11:18:00.893Z,1005.23
2018-05-10T11:19:53.900Z,1005.27
2018-05-10T11:20:54.003Z,1005.21
2018-05-10T11:22:46.955Z,1005.27
2018-05-10T11:23:47.017Z,1005.28
2018-05-10T11:25:40.019Z,1005.32
2018-05-10T11:26:40.078Z,1005.32
2018-05-10T11:28:33.128Z,1005.35
2018-05-10T11:29:33.141Z,1005.38
2018-05-10T11:31:26.150Z,1005.42
2018-05-10T11:32:26.202Z,1005.44
2018-05-10T11:34:19.201Z,1005.45
2018-05-10T11:35:19.266Z,1005.54
2018-05-10T11:37:12.273Z,1005.56
2018-05-10T11:38:12.326Z,1005.57
2018-05-10T11:40:05.344Z,1005.61
2018-05-10T11:41:05.392Z,1005.65
2018-05-10T11:42:58.393Z,1005.70
2018-05-10T11:43:58.455Z,1005.73
2018-05-10T11:45:51.460Z,1005.77
2018-05-10T11:46:51.517Z,1005.72
2018-05-10T11:48:44.522Z,1005.76
2018-05-10T11:49:44.580Z,1005.75
2018-05-10T11:51:37.594Z,1005.78
2018-05-10T11:52:37.644Z,1005.79
2018-05-10T11:54:30.640Z,1005.86
2018-05-10T11:55:30.702Z,1005.83
2018-05-10T11:57:23.776Z,1005.88
2018-05-10T11:58:23.772Z,1005.90
2018-05-10T12:00:16.772Z,1005.90
2018-05-10T12:01:16.831Z,1005.94
2018-05-10T12:03:09.847Z,1005.92
2018-05-10T12:04:09.891Z,1005.94
2018-05-10T12:06:02.923Z,1005.97
2018-05-10T12:07:02.959Z,1005.94
2018-05-10T12:08:55.955Z,1005.97
2018-05-10T12:09:56.021Z,1006.00
2018-05-10T12:11:49.028Z,1006.04
2018-05-10T12:12:49.078Z,1006.03
2018-05-10T12:14:42.080Z,1006.14
2018-05-10T12:15:42.138Z,1006.17
2018-05-10T12:17:35.141Z,1006.19
2018-05-10T12:18:35.198Z,1006.18
2018-05-10T12:20:28.299Z,1006.25
2018-05-10T12:21:28.263Z,1006.26
2018-05-10T12:23:21.259Z,1006.30
2018-05-10T12:24:21.321Z,1006.31
2018-05-10T12:26:14.852Z,1006.36
2018-05-10T12:27:14.898Z,1006.34
2018-05-10T12:29:07.898Z,1006.36
2018-05-10T12:30:07.962Z,1006.40
2018-05-10T12:32:00.965Z,1006.33
2018-05-10T12:33:01.022Z,1006.38
2018-05-10T12:34:54.021Z,1006.36
2018-05-10T12:35:54.079Z,1006.35
2018-05-10T12:37:47.086Z,1006.40
2018-05-10T12:38:47.141Z,1006.39
2018-05-10T12:40:40.157Z,1006.42
2018-05-10T12:41:40.282Z,1006.38
2018-05-10T12:43:33.192Z,1006.41
2018-05-10T12:44:33.262Z,1006.45
2018-05-10T12:46:26.256Z,1006.48
2018-05-10T12:47:26.318Z,1006.48
2018-05-10T12:49:19.315Z,1006.48
2018-05-10T12:50:19.392Z,1006.50
2018-05-10T12:52:12.390Z,1006.48
2018-05-10T12:53:12.439Z,1006.50
2018-05-10T12:55:05.438Z,1006.53
2018-05-10T12:56:05.583Z,1006.55
2018-05-10T12:57:58.513Z,1006.53
2018-05-10T12:58:58.562Z,1006.49
2018-05-10T13:00:51.655Z,1006.50
2018-05-10T13:01:51.621Z,1006.54
2018-05-10T13:03:44.614Z,1006.56
2018-05-10T13:04:44.677Z,1006.57
2018-05-10T13:06:37.687Z,1006.59
2018-05-10T13:07:37.737Z,1006.62
2018-05-10T13:09:30.730Z,1006.61
2018-05-10T13:10:30.794Z,1006.61
2018-05-10T13:12:23.797Z,1006.61
2018-05-10T13:13:23.948Z,1006.60
2018-05-10T13:15:16.916Z,1006.62
2018-05-10T13:16:16.953Z,1006.67
2018-05-10T13:18:09.913Z,1006.71
2018-05-10T13:19:09.973Z,1006.71
2018-05-10T13:21:02.971Z,1006.71
2018-05-10T13:22:03.027Z,1006.72
2018-05-10T13:23:56.022Z,1006.71
2018-05-10T13:24:56.086Z,1006.73
2018-05-10T13:26:49.596Z,1006.80
2018-05-10T13:27:49.648Z,1006.75
2018-05-10T13:29:43.151Z,1006.73
2018-05-10T13:30:43.215Z,1006.79
2018-05-10T13:32:36.233Z,1006.76
2018-05-10T13:33:36.271Z,1006.80
2018-05-10T13:35:29.274Z,1006.77
2018-05-10T13:36:29.335Z,1006.79
2018-05-10T13:38:22.344Z,1006.78
2018-05-10T13:39:22.393Z,1006.78
2018-05-10T13:41:15.413Z,1006.80
2018-05-10T13:42:15.456Z,1006.82
2018-05-10T13:44:08.445Z,1006.84
2018-05-10T13:45:08.513Z,1006.82
2018-05-10T13:47:01.521Z,1006.84
2018-05-10T13:48:01.570Z,1006.82
2018-05-10T13:49:54.568Z,1006.82
2018-05-10T13:50:54.628Z,1006.81
2018-05-10T13:52:47.634Z,1006.85
2018-05-10T13:53:47.688Z,1006.84
2018-05-10T13:55:40.681Z,1006.88
2018-05-10T13:56:40.745Z,1006.88
2018-05-10T13:58:33.757Z,1006.86
2018-05-10T13:59:33.818Z,1006.87
2018-05-10T14:01:26.835Z,1006.88
2018-05-10T14:02:26.871Z,1006.88
2018-05-10T14:04:19.869Z,1006.88
2018-05-10T14:05:19.930Z,1006.87
2018-05-10T14:07:12.931Z,1006.92
2018-05-10T14:08:12.994Z,1006.91
2018-05-10T14:10:05.984Z,1006.87
2018-05-10T14:11:06.051Z,1006.91
2018-05-10T14:12:59.044Z,1006.94
2018-05-10T14:13:59.102Z,1006.94
2018-05-10T14:15:52.094Z,1006.97
2018-05-10T14:16:52.159Z,1006.97
2018-05-10T14:18:45.159Z,1007.06
2018-05-10T14:19:45.214Z,1007.06
2018-05-10T14:21:38.231Z,1007.07
2018-05-10T14:22:38.278Z,1007.10
2018-05-10T14:24:31.271Z,1007.10
2018-05-10T14:25:31.334Z,1007.13
2018-05-10T14:27:24.339Z,1007.14
2018-05-10T14:28:24.392Z,1007.17
2018-05-10T14:30:17.412Z,1007.19
2018-05-10T14:31:17.446Z,1007.22
2018-05-10T14:33:10.489Z,1007.23
2018-05-10T14:34:10.515Z,1007.23
2018-05-10T14:36:03.493Z,1007.23
2018-05-10T14:37:03.569Z,1007.30
2018-05-10T14:38:56.564Z,1007.31
2018-05-10T14:39:56.617Z,1007.35
2018-05-10T14:41:49.628Z,1007.38
2018-05-10T14:42:49.680Z,1007.41
2018-05-10T14:44:42.669Z,1007.42
2018-05-10T14:45:42.729Z,1007.38
2018-05-10T14:47:35.732Z,1007.39
2018-05-10T14:48:35.787Z,1007.42
2018-05-10T14:50:28.785Z,1007.43
2018-05-10T14:51:28.850Z,1007.39
2018-05-10T14:53:21.881Z,1007.45
2018-05-10T14:54:21.934Z,1007.44
2018-05-10T14:56:14.936Z,1007.50
2018-05-10T14:57:15.003Z,1007.52
2018-05-10T14:59:08.018Z,1007.50
2018-05-10T15:00:08.078Z,1007.56
2018-05-10T15:02:01.094Z,1007.55
2018-05-10T15:03:01.134Z,1007.53
2018-05-10T15:04:54.130Z,1007.54
2018-05-10T15:05:54.189Z,1007.54
2018-05-10T15:07:47.251Z,1007.62
2018-05-10T15:08:47.259Z,1007.66
2018-05-10T15:10:40.255Z,1007.73
2018-05-10T15:11:40.325Z,1007.71
2018-05-10T15:13:33.335Z,1007.75
2018-05-10T15:14:33.387Z,1007.80
2018-05-10T15:16:26.386Z,1007.81
2018-05-10T15:17:26.457Z,1007.79
2018-05-10T15:19:19.468Z,1007.80
2018-05-10T15:20:19.531Z,1007.83
2018-05-10T15:22:12.556Z,1007.82
2018-05-10T15:23:12.598Z,1007.78
2018-05-10T15:25:05.608Z,1007.81
2018-05-10T15:26:05.665Z,1007.82
2018-05-10T15:27:58.698Z,1007.81
2018-05-10T15:28:58.728Z,1007.82
2018-05-10T15:30:51.735Z,1007.85
2018-05-10T15:31:51.804Z,1007.89
2018-05-10T15:33:44.809Z,1007.85
2018-05-10T15:34:44.881Z,1007.88
2018-05-10T15:36:37.855Z,1007.89
2018-05-10T15:37:37.910Z,1007.95
2018-05-10T15:39:31.424Z,1007.98
2018-05-10T15:40:31.483Z,1007.96
2018-05-10T15:42:24.486Z,1008.02
2018-05-10T15:43:24.540Z,1008.03
2018-05-10T15:45:17.534Z,1008.07
2018-05-10T15:46:17.597Z,1008.11
2018-05-10T15:48:10.629Z,1008.13
2018-05-10T15:49:10.665Z,1008.14
2018-05-10T15:51:03.660Z,1008.14
2018-05-10T15:52:03.724Z,1008.20
2018-05-10T15:53:56.725Z,1008.21
2018-05-10T15:54:56.781Z,1008.23
2018-05-10T15:56:49.778Z,1008.26
2018-05-10T15:57:49.843Z,1008.29
2018-05-10T15:59:42.853Z,1008.31
2018-05-10T16:00:42.911Z,1008.36
2018-05-10T16:02:35.920Z,1008.34
2018-05-10T16:03:35.970Z,1008.38
2018-05-10T16:05:28.973Z,1008.42
2018-05-10T16:06:29.032Z,1008.39
2018-05-10T16:08:22.039Z,1008.45
2018-05-10T16:09:22.085Z,1008.43
2018-05-10T16:11:15.090Z,1008.42
2018-05-10T16:12:15.156Z,1008.42
2018-05-10T16:14:08.178Z,1008.47
2018-05-10T16:15:08.222Z,1008.44
2018-05-10T16:17:01.213Z,1008.46
2018-05-10T16:18:01.364Z,1008.47
2018-05-10T16:19:54.285Z,1008.48
2018-05-10T16:20:54.342Z,1008.55
2018-05-10T16:22:47.353Z,1008.59
2018-05-10T16:23:47.397Z,1008.56
2018-05-10T16:25:40.389Z,1008.62
2018-05-10T16:26:40.455Z,1008.61
2018-05-10T16:28:33.460Z,1008.64
2018-05-10T16:29:33.513Z,1008.62
2018-05-10T16:31:26.519Z,1008.65
2018-05-10T16:32:26.579Z,1008.72
2018-05-10T16:34:19.571Z,1008.72
2018-05-10T16:35:19.628Z,1008.75
2018-05-10T16:37:12.623Z,1008.79
2018-05-10T16:38:12.686Z,1008.81
2018-05-10T16:40:05.687Z,1008.81
2018-05-10T16:41:05.741Z,1008.84
2018-05-10T16:42:58.765Z,1008.84
2018-05-10T16:43:58.810Z,1008.84
2018-05-10T16:45:51.807Z,1008.83
2018-05-10T16:46:51.867Z,1008.88
2018-05-10T16:48:44.881Z,1008.90
2018-05-10T16:49:44.945Z,1008.94
2018-05-10T16:51:37.946Z,1008.94
2018-05-10T16:52:38.012Z,1008.99
2018-05-10T16:54:31.014Z,1009.05
2018-05-10T16:55:31.069Z,1009.07
2018-05-10T16:57:24.066Z,1009.15
2018-05-10T16:58:24.134Z,1009.16
2018-05-10T17:00:17.133Z,1009.26
2018-05-10T17:01:17.186Z,1009.23
2018-05-10T17:03:10.206Z,1009.25
2018-05-10T17:04:10.244Z,1009.27
2018-05-10T17:06:03.248Z,1009.26
2018-05-10T17:07:03.303Z,1009.36
2018-05-10T17:08:56.307Z,1009.39
2018-05-10T17:09:56.360Z,1009.41
2018-05-10T17:11:49.355Z,1009.47
2018-05-10T17:12:49.421Z,1009.51
2018-05-10T17:14:42.429Z,1009.56
2018-05-10T17:15:42.487Z,1009.55
2018-05-10T17:17:35.482Z,1009.61
2018-05-10T17:18:35.560Z,1009.67
2018-05-10T17:20:28.543Z,1009.69
2018-05-10T17:21:28.601Z,1009.69
2018-05-10T17:23:21.601Z,1009.77
2018-05-10T17:24:21.651Z,1009.80
2018-05-10T17:26:15.151Z,1009.88
2018-05-10T17:27:15.223Z,1009.91
2018-05-10T17:29:08.215Z,1009.97
2018-05-10T17:30:08.270Z,1009.97
2018-05-10T17:32:01.269Z,1009.97
2018-05-10T17:33:01.332Z,1009.94
2018-05-10T17:34:54.336Z,1009.94